sensor_id;sensor_type;location;lat;lon;timestamp;P1;durP1;ratioP1;P2;durP2;ratioP2
21860;SDS011;11095;48.066;8.540;2022-09-12T00:00:50;5.13;;;4.63;;
21860;SDS011;11095;48.066;8.540;2022-09-12T00:03:16;5.65;;;5.05;;
21860;SDS011;11095;48.066;8.540;2022-09-12T00:05:42;5.68;;;4.95;;
21860;SDS011;11095;48.066;8.540;2022-09-12T00:08:10;7.13;;;4.93;;
21860;SDS011;11095;48.066;8.540;2022-09-12T00:10:40;5.47;;;4.85;;
21860;SDS011;11095;48.066;8.540;2022-09-12T00:13:07;5.82;;;5.22;;
21860;SDS011;11095;48.066;8.540;2022-09-12T00:15:37;6.57;;;5.57;;
21860;SDS011;11095;48.066;8.540;2022-09-12T00:18:04;5.45;;;4.90;;
21860;SDS011;11095;48.066;8.540;2022-09-12T00:20:29;6.90;;;5.05;;
21860;SDS011;11095;48.066;8.540;2022-09-12T00:22:55;7.93;;;5.70;;
21860;SDS011;11095;48.066;8.540;2022-09-12T00:25:21;7.38;;;5.60;;
21860;SDS011;11095;48.066;8.540;2022-09-12T00:27:46;5.35;;;4.68;;
21860;SDS011;11095;48.066;8.540;2022-09-12T00:30:12;6.50;;;4.68;;
21860;SDS011;11095;48.066;8.540;2022-09-12T00:32:38;7.07;;;5.88;;
21860;SDS011;11095;48.066;8.540;2022-09-12T00:35:04;5.45;;;4.95;;
21860;SDS011;11095;48.066;8.540;2022-09-12T00:37:30;6.35;;;5.40;;
21860;SDS011;11095;48.066;8.540;2022-09-12T00:39:55;5.85;;;5.18;;
21860;SDS011;11095;48.066;8.540;2022-09-12T00:42:21;7.72;;;5.57;;
21860;SDS011;11095;48.066;8.540;2022-09-12T00:44:48;5.88;;;5.13;;
21860;SDS011;11095;48.066;8.540;2022-09-12T00:47:20;6.13;;;5.05;;
21860;SDS011;11095;48.066;8.540;2022-09-12T00:49:54;5.63;;;5.13;;
21860;SDS011;11095;48.066;8.540;2022-09-12T00:52:33;5.50;;;4.75;;
21860;SDS011;11095;48.066;8.540;2022-09-12T00:55:06;5.25;;;4.75;;
21860;SDS011;11095;48.066;8.540;2022-09-12T00:57:42;5.03;;;4.53;;
21860;SDS011;11095;48.066;8.540;2022-09-12T01:00:25;5.70;;;4.70;;
21860;SDS011;11095;48.066;8.540;2022-09-12T01:03:04;5.85;;;4.80;;
21860;SDS011;11095;48.066;8.540;2022-09-12T01:05:36;5.10;;;4.40;;
21860;SDS011;11095;48.066;8.540;2022-09-12T01:08:08;5.28;;;4.78;;
21860;SDS011;11095;48.066;8.540;2022-09-12T01:10:35;5.80;;;4.85;;
21860;SDS011;11095;48.066;8.540;2022-09-12T01:13:03;5.35;;;4.80;;
21860;SDS011;11095;48.066;8.540;2022-09-12T01:15:30;5.05;;;4.57;;
21860;SDS011;11095;48.066;8.540;2022-09-12T01:18:00;5.45;;;4.50;;
21860;SDS011;11095;48.066;8.540;2022-09-12T01:34:17;6.32;;;5.13;;
21860;SDS011;11095;48.066;8.540;2022-09-12T01:37:09;5.72;;;4.72;;
21860;SDS011;11095;48.066;8.540;2022-09-12T01:45:45;5.93;;;4.60;;
21860;SDS011;11095;48.066;8.540;2022-09-12T01:48:23;5.88;;;5.00;;
21860;SDS011;11095;48.066;8.540;2022-09-12T01:53:26;5.45;;;4.70;;
21860;SDS011;11095;48.066;8.540;2022-09-12T01:55:58;5.38;;;4.88;;
21860;SDS011;11095;48.066;8.540;2022-09-12T01:58:28;5.22;;;4.45;;
21860;SDS011;11095;48.066;8.540;2022-09-12T02:01:07;5.18;;;4.68;;
21860;SDS011;11095;48.066;8.540;2022-09-12T02:03:48;7.10;;;4.80;;
21860;SDS011;11095;48.066;8.540;2022-09-12T02:09:08;5.28;;;4.15;;
21860;SDS011;11095;48.066;8.540;2022-09-12T02:11:40;5.15;;;4.65;;
21860;SDS011;11095;48.066;8.540;2022-09-12T02:16:44;5.68;;;4.72;;
21860;SDS011;11095;48.066;8.540;2022-09-12T02:19:14;5.30;;;4.80;;
21860;SDS011;11095;48.066;8.540;2022-09-12T02:21:45;5.45;;;4.63;;
21860;SDS011;11095;48.066;8.540;2022-09-12T02:24:14;5.72;;;4.90;;
21860;SDS011;11095;48.066;8.540;2022-09-12T02:26:46;5.30;;;4.40;;
21860;SDS011;11095;48.066;8.540;2022-09-12T02:29:14;5.18;;;4.47;;
21860;SDS011;11095;48.066;8.540;2022-09-12T02:39:58;5.07;;;4.53;;
21860;SDS011;11095;48.066;8.540;2022-09-12T02:42:25;6.43;;;4.90;;
21860;SDS011;11095;48.066;8.540;2022-09-12T02:44:51;6.07;;;5.00;;
21860;SDS011;11095;48.066;8.540;2022-09-12T02:49:53;5.40;;;4.90;;
21860;SDS011;11095;48.066;8.540;2022-09-12T02:52:20;5.63;;;4.50;;
21860;SDS011;11095;48.066;8.540;2022-09-12T02:54:46;4.90;;;4.35;;
21860;SDS011;11095;48.066;8.540;2022-09-12T02:57:17;6.07;;;4.60;;
21860;SDS011;11095;48.066;8.540;2022-09-12T02:59:44;6.60;;;5.00;;
21860;SDS011;11095;48.066;8.540;2022-09-12T03:02:17;5.93;;;4.57;;
21860;SDS011;11095;48.066;8.540;2022-09-12T03:13:24;5.47;;;4.38;;
21860;SDS011;11095;48.066;8.540;2022-09-12T03:24:32;5.55;;;4.57;;
21860;SDS011;11095;48.066;8.540;2022-09-12T03:27:07;5.00;;;4.35;;
21860;SDS011;11095;48.066;8.540;2022-09-12T03:29:36;5.15;;;4.55;;
21860;SDS011;11095;48.066;8.540;2022-09-12T03:32:03;5.47;;;4.50;;
21860;SDS011;11095;48.066;8.540;2022-09-12T03:34:29;5.40;;;4.80;;
21860;SDS011;11095;48.066;8.540;2022-09-12T03:36:55;4.80;;;4.22;;
21860;SDS011;11095;48.066;8.540;2022-09-12T03:39:21;6.13;;;4.60;;
21860;SDS011;11095;48.066;8.540;2022-09-12T03:41:48;5.65;;;4.10;;
21860;SDS011;11095;48.066;8.540;2022-09-12T03:44:15;5.43;;;4.30;;
21860;SDS011;11095;48.066;8.540;2022-09-12T03:46:41;4.72;;;4.10;;
21860;SDS011;11095;48.066;8.540;2022-09-12T03:49:06;4.20;;;3.80;;
21860;SDS011;11095;48.066;8.540;2022-09-12T03:51:32;4.22;;;3.83;;
21860;SDS011;11095;48.066;8.540;2022-09-12T03:53:58;5.13;;;4.53;;
21860;SDS011;11095;48.066;8.540;2022-09-12T03:56:23;4.25;;;3.85;;
21860;SDS011;11095;48.066;8.540;2022-09-12T03:58:49;5.05;;;4.00;;
21860;SDS011;11095;48.066;8.540;2022-09-12T04:01:16;4.22;;;3.75;;
21860;SDS011;11095;48.066;8.540;2022-09-12T04:03:43;4.40;;;3.80;;
21860;SDS011;11095;48.066;8.540;2022-09-12T04:06:11;4.55;;;3.58;;
21860;SDS011;11095;48.066;8.540;2022-09-12T04:08:38;5.45;;;4.05;;
21860;SDS011;11095;48.066;8.540;2022-09-12T04:11:05;4.45;;;3.55;;
21860;SDS011;11095;48.066;8.540;2022-09-12T04:13:33;3.95;;;3.55;;
21860;SDS011;11095;48.066;8.540;2022-09-12T04:16:00;4.38;;;3.97;;
21860;SDS011;11095;48.066;8.540;2022-09-12T04:18:27;4.40;;;3.88;;
21860;SDS011;11095;48.066;8.540;2022-09-12T04:20:52;4.15;;;3.72;;
21860;SDS011;11095;48.066;8.540;2022-09-12T04:23:18;4.45;;;3.75;;
21860;SDS011;11095;48.066;8.540;2022-09-12T04:25:44;4.65;;;4.00;;
21860;SDS011;11095;48.066;8.540;2022-09-12T04:28:18;5.10;;;4.00;;
21860;SDS011;11095;48.066;8.540;2022-09-12T04:30:44;4.50;;;3.80;;
21860;SDS011;11095;48.066;8.540;2022-09-12T04:33:09;5.18;;;4.35;;
21860;SDS011;11095;48.066;8.540;2022-09-12T04:35:35;4.45;;;4.05;;
21860;SDS011;11095;48.066;8.540;2022-09-12T04:38:01;4.28;;;3.80;;
21860;SDS011;11095;48.066;8.540;2022-09-12T04:40:28;4.50;;;4.10;;
21860;SDS011;11095;48.066;8.540;2022-09-12T04:42:54;6.43;;;3.80;;
21860;SDS011;11095;48.066;8.540;2022-09-12T04:45:20;4.90;;;4.03;;
21860;SDS011;11095;48.066;8.540;2022-09-12T04:47:46;4.70;;;4.10;;
21860;SDS011;11095;48.066;8.540;2022-09-12T04:50:11;5.13;;;4.07;;
21860;SDS011;11095;48.066;8.540;2022-09-12T04:52:38;5.28;;;4.00;;
21860;SDS011;11095;48.066;8.540;2022-09-12T04:55:05;6.18;;;4.00;;
21860;SDS011;11095;48.066;8.540;2022-09-12T04:57:31;6.22;;;3.80;;
21860;SDS011;11095;48.066;8.540;2022-09-12T04:59:56;5.22;;;4.10;;
21860;SDS011;11095;48.066;8.540;2022-09-12T05:02:23;4.45;;;3.80;;
21860;SDS011;11095;48.066;8.540;2022-09-12T05:04:49;4.43;;;3.83;;
21860;SDS011;11095;48.066;8.540;2022-09-12T05:07:15;4.35;;;3.95;;
21860;SDS011;11095;48.066;8.540;2022-09-12T05:09:40;5.22;;;3.70;;
21860;SDS011;11095;48.066;8.540;2022-09-12T05:12:06;5.60;;;5.00;;
21860;SDS011;11095;48.066;8.540;2022-09-12T05:14:32;7.07;;;5.85;;
21860;SDS011;11095;48.066;8.540;2022-09-12T05:16:58;8.10;;;6.53;;
21860;SDS011;11095;48.066;8.540;2022-09-12T05:19:25;8.73;;;6.80;;
21860;SDS011;11095;48.066;8.540;2022-09-12T05:21:51;8.45;;;6.60;;
21860;SDS011;11095;48.066;8.540;2022-09-12T05:24:17;6.80;;;6.10;;
21860;SDS011;11095;48.066;8.540;2022-09-12T05:26:43;5.85;;;5.25;;
21860;SDS011;11095;48.066;8.540;2022-09-12T05:29:08;5.07;;;4.60;;
21860;SDS011;11095;48.066;8.540;2022-09-12T05:31:34;3.63;;;3.33;;
21860;SDS011;11095;48.066;8.540;2022-09-12T05:33:59;2.55;;;2.25;;
21860;SDS011;11095;48.066;8.540;2022-09-12T05:38:56;1.40;;;1.30;;
21860;SDS011;11095;48.066;8.540;2022-09-12T05:41:24;1.30;;;1.20;;
21860;SDS011;11095;48.066;8.540;2022-09-12T05:43:54;1.70;;;1.08;;
21860;SDS011;11095;48.066;8.540;2022-09-12T05:46:21;1.55;;;0.85;;
21860;SDS011;11095;48.066;8.540;2022-09-12T05:48:49;2.00;;;1.10;;
21860;SDS011;11095;48.066;8.540;2022-09-12T05:51:17;2.72;;;1.20;;
21860;SDS011;11095;48.066;8.540;2022-09-12T05:53:46;1.80;;;1.08;;
21860;SDS011;11095;48.066;8.540;2022-09-12T05:56:23;1.23;;;1.10;;
21860;SDS011;11095;48.066;8.540;2022-09-12T05:58:56;1.48;;;0.90;;
21860;SDS011;11095;48.066;8.540;2022-09-12T06:01:23;1.73;;;1.00;;
21860;SDS011;11095;48.066;8.540;2022-09-12T06:03:50;2.08;;;0.90;;
21860;SDS011;11095;48.066;8.540;2022-09-12T06:06:22;0.77;;;0.77;;
21860;SDS011;11095;48.066;8.540;2022-09-12T06:08:50;1.10;;;0.90;;
21860;SDS011;11095;48.066;8.540;2022-09-12T06:11:18;0.90;;;0.80;;
21860;SDS011;11095;48.066;8.540;2022-09-12T06:13:45;1.30;;;1.02;;
21860;SDS011;11095;48.066;8.540;2022-09-12T06:16:13;1.83;;;0.95;;
21860;SDS011;11095;48.066;8.540;2022-09-12T06:18:40;1.98;;;1.15;;
21860;SDS011;11095;48.066;8.540;2022-09-12T06:23:33;1.08;;;1.00;;
21860;SDS011;11095;48.066;8.540;2022-09-12T06:25:59;2.55;;;1.30;;
21860;SDS011;11095;48.066;8.540;2022-09-12T06:28:25;1.52;;;1.42;;
21860;SDS011;11095;48.066;8.540;2022-09-12T06:30:52;1.15;;;1.05;;
21860;SDS011;11095;48.066;8.540;2022-09-12T06:33:17;2.33;;;1.10;;
21860;SDS011;11095;48.066;8.540;2022-09-12T06:35:43;1.55;;;0.90;;
21860;SDS011;11095;48.066;8.540;2022-09-12T06:38:09;1.63;;;1.00;;
21860;SDS011;11095;48.066;8.540;2022-09-12T06:40:40;1.13;;;1.00;;
21860;SDS011;11095;48.066;8.540;2022-09-12T06:43:10;0.88;;;0.80;;
21860;SDS011;11095;48.066;8.540;2022-09-12T06:45:37;0.93;;;0.90;;
21860;SDS011;11095;48.066;8.540;2022-09-12T06:48:03;0.90;;;0.80;;
21860;SDS011;11095;48.066;8.540;2022-09-12T06:50:29;1.05;;;0.90;;
21860;SDS011;11095;48.066;8.540;2022-09-12T06:52:55;0.95;;;0.80;;
21860;SDS011;11095;48.066;8.540;2022-09-12T06:55:21;1.55;;;1.00;;
21860;SDS011;11095;48.066;8.540;2022-09-12T06:57:48;1.45;;;0.90;;
21860;SDS011;11095;48.066;8.540;2022-09-12T07:00:14;1.90;;;1.00;;
21860;SDS011;11095;48.066;8.540;2022-09-12T07:02:40;1.30;;;1.10;;
21860;SDS011;11095;48.066;8.540;2022-09-12T07:05:05;1.35;;;1.00;;
21860;SDS011;11095;48.066;8.540;2022-09-12T07:07:32;1.13;;;1.02;;
21860;SDS011;11095;48.066;8.540;2022-09-12T07:09:59;2.25;;;1.00;;
21860;SDS011;11095;48.066;8.540;2022-09-12T07:12:26;2.00;;;0.90;;
21860;SDS011;11095;48.066;8.540;2022-09-12T07:14:53;1.85;;;0.75;;
21860;SDS011;11095;48.066;8.540;2022-09-12T07:17:18;1.10;;;0.85;;
21860;SDS011;11095;48.066;8.540;2022-09-12T07:19:44;2.10;;;0.60;;
21860;SDS011;11095;48.066;8.540;2022-09-12T07:22:10;0.90;;;0.80;;
21860;SDS011;11095;48.066;8.540;2022-09-12T07:24:36;0.98;;;0.80;;
21860;SDS011;11095;48.066;8.540;2022-09-12T07:27:02;0.90;;;0.80;;
21860;SDS011;11095;48.066;8.540;2022-09-12T07:29:28;0.82;;;0.70;;
21860;SDS011;11095;48.066;8.540;2022-09-12T07:31:54;1.05;;;0.60;;
21860;SDS011;11095;48.066;8.540;2022-09-12T07:34:19;3.60;;;0.80;;
21860;SDS011;11095;48.066;8.540;2022-09-12T07:36:45;1.35;;;0.70;;
21860;SDS011;11095;48.066;8.540;2022-09-12T07:39:10;1.10;;;0.65;;
21860;SDS011;11095;48.066;8.540;2022-09-12T07:41:36;0.88;;;0.70;;
21860;SDS011;11095;48.066;8.540;2022-09-12T07:44:02;1.13;;;0.80;;
21860;SDS011;11095;48.066;8.540;2022-09-12T07:46:29;0.85;;;0.80;;
21860;SDS011;11095;48.066;8.540;2022-09-12T07:48:56;1.45;;;0.90;;
21860;SDS011;11095;48.066;8.540;2022-09-12T07:51:24;2.25;;;1.00;;
21860;SDS011;11095;48.066;8.540;2022-09-12T07:53:50;0.82;;;0.82;;
21860;SDS011;11095;48.066;8.540;2022-09-12T07:56:16;1.35;;;1.20;;
21860;SDS011;11095;48.066;8.540;2022-09-12T07:58:44;1.30;;;1.00;;
21860;SDS011;11095;48.066;8.540;2022-09-12T08:03:40;3.42;;;0.90;;
21860;SDS011;11095;48.066;8.540;2022-09-12T08:06:10;1.02;;;0.82;;
21860;SDS011;11095;48.066;8.540;2022-09-12T08:08:38;0.98;;;0.70;;
21860;SDS011;11095;48.066;8.540;2022-09-12T08:11:05;1.50;;;0.90;;
21860;SDS011;11095;48.066;8.540;2022-09-12T08:13:36;2.20;;;1.00;;
21860;SDS011;11095;48.066;8.540;2022-09-12T08:16:04;0.80;;;0.80;;
21860;SDS011;11095;48.066;8.540;2022-09-12T08:18:32;2.08;;;1.13;;
21860;SDS011;11095;48.066;8.540;2022-09-12T08:21:00;1.20;;;0.90;;
21860;SDS011;11095;48.066;8.540;2022-09-12T08:23:27;1.08;;;0.68;;
21860;SDS011;11095;48.066;8.540;2022-09-12T08:26:00;1.55;;;0.63;;
21860;SDS011;11095;48.066;8.540;2022-09-12T08:28:27;1.38;;;0.93;;
21860;SDS011;11095;48.066;8.540;2022-09-12T08:30:58;1.00;;;0.80;;
21860;SDS011;11095;48.066;8.540;2022-09-12T08:33:25;0.68;;;0.60;;
21860;SDS011;11095;48.066;8.540;2022-09-12T08:36:01;1.38;;;0.82;;
21860;SDS011;11095;48.066;8.540;2022-09-12T08:38:31;0.82;;;0.63;;
21860;SDS011;11095;48.066;8.540;2022-09-12T08:41:03;0.60;;;0.60;;
21860;SDS011;11095;48.066;8.540;2022-09-12T08:43:49;1.25;;;0.60;;
21860;SDS011;11095;48.066;8.540;2022-09-12T08:46:18;1.55;;;0.70;;
21860;SDS011;11095;48.066;8.540;2022-09-12T08:48:51;0.88;;;0.60;;
21860;SDS011;11095;48.066;8.540;2022-09-12T08:51:17;1.23;;;0.70;;
21860;SDS011;11095;48.066;8.540;2022-09-12T08:53:45;1.05;;;0.90;;
21860;SDS011;11095;48.066;8.540;2022-09-12T08:56:13;1.63;;;0.88;;
21860;SDS011;11095;48.066;8.540;2022-09-12T08:58:41;0.75;;;0.75;;
21860;SDS011;11095;48.066;8.540;2022-09-12T09:09:11;1.67;;;0.70;;
21860;SDS011;11095;48.066;8.540;2022-09-12T09:17:02;1.08;;;0.82;;
21860;SDS011;11095;48.066;8.540;2022-09-12T09:19:36;1.10;;;0.77;;
21860;SDS011;11095;48.066;8.540;2022-09-12T09:22:15;1.77;;;0.70;;
21860;SDS011;11095;48.066;8.540;2022-09-12T09:24:54;1.88;;;0.70;;
21860;SDS011;11095;48.066;8.540;2022-09-12T09:27:33;1.33;;;0.60;;
21860;SDS011;11095;48.066;8.540;2022-09-12T09:30:07;1.58;;;0.60;;
21860;SDS011;11095;48.066;8.540;2022-09-12T09:32:39;1.13;;;0.70;;
21860;SDS011;11095;48.066;8.540;2022-09-12T09:35:16;0.82;;;0.70;;
21860;SDS011;11095;48.066;8.540;2022-09-12T09:38:48;0.60;;;0.50;;
21860;SDS011;11095;48.066;8.540;2022-09-12T09:43:29;0.60;;;0.50;;
21860;SDS011;11095;48.066;8.540;2022-09-12T09:45:55;1.30;;;0.80;;
21860;SDS011;11095;48.066;8.540;2022-09-12T09:50:48;1.50;;;0.60;;
21860;SDS011;11095;48.066;8.540;2022-09-12T09:56:05;0.75;;;0.68;;
21860;SDS011;11095;48.066;8.540;2022-09-12T09:58:35;0.60;;;0.60;;
21860;SDS011;11095;48.066;8.540;2022-09-12T10:01:01;0.88;;;0.70;;
21860;SDS011;11095;48.066;8.540;2022-09-12T10:03:33;2.13;;;0.83;;
21860;SDS011;11095;48.066;8.540;2022-09-12T10:08:44;0.93;;;0.70;;
21860;SDS011;11095;48.066;8.540;2022-09-12T10:11:20;0.82;;;0.60;;
21860;SDS011;11095;48.066;8.540;2022-09-12T10:18:48;1.00;;;0.70;;
21860;SDS011;11095;48.066;8.540;2022-09-12T10:23:56;1.05;;;0.70;;
21860;SDS011;11095;48.066;8.540;2022-09-12T10:26:25;0.70;;;0.50;;
21860;SDS011;11095;48.066;8.540;2022-09-12T10:28:57;1.05;;;0.57;;
21860;SDS011;11095;48.066;8.540;2022-09-12T10:31:34;0.77;;;0.60;;
21860;SDS011;11095;48.066;8.540;2022-09-12T10:34:09;0.70;;;0.40;;
21860;SDS011;11095;48.066;8.540;2022-09-12T10:36:53;1.05;;;0.40;;
21860;SDS011;11095;48.066;8.540;2022-09-12T10:39:24;0.32;;;0.32;;
21860;SDS011;11095;48.066;8.540;2022-09-12T10:41:50;0.52;;;0.32;;
21860;SDS011;11095;48.066;8.540;2022-09-12T10:44:17;0.55;;;0.28;;
21860;SDS011;11095;48.066;8.540;2022-09-12T10:46:51;0.50;;;0.40;;
21860;SDS011;11095;48.066;8.540;2022-09-12T10:49:19;0.40;;;0.40;;
21860;SDS011;11095;48.066;8.540;2022-09-12T10:51:55;0.82;;;0.40;;
21860;SDS011;11095;48.066;8.540;2022-09-12T10:54:24;0.85;;;0.30;;
21860;SDS011;11095;48.066;8.540;2022-09-12T11:33:43;1.17;;;0.50;;
21860;SDS011;11095;48.066;8.540;2022-09-12T11:36:14;1.02;;;0.65;;
21860;SDS011;11095;48.066;8.540;2022-09-12T11:38:51;1.05;;;0.60;;
21860;SDS011;11095;48.066;8.540;2022-09-12T11:41:28;1.48;;;0.60;;
21860;SDS011;11095;48.066;8.540;2022-09-12T11:44:20;1.08;;;0.57;;
21860;SDS011;11095;48.066;8.540;2022-09-12T11:46:47;0.70;;;0.60;;
21860;SDS011;11095;48.066;8.540;2022-09-12T12:05:38;0.52;;;0.50;;
21860;SDS011;11095;48.066;8.540;2022-09-12T12:08:16;1.58;;;0.57;;
21860;SDS011;11095;48.066;8.540;2022-09-12T12:10:59;0.40;;;0.40;;
21860;SDS011;11095;48.066;8.540;2022-09-12T12:15:55;0.73;;;0.60;;
21860;SDS011;11095;48.066;8.540;2022-09-12T12:18:43;0.70;;;0.50;;
21860;SDS011;11095;48.066;8.540;2022-09-12T12:29:08;0.57;;;0.50;;
21860;SDS011;11095;48.066;8.540;2022-09-12T12:40:07;0.68;;;0.40;;
21860;SDS011;11095;48.066;8.540;2022-09-12T12:47:53;0.77;;;0.40;;
21860;SDS011;11095;48.066;8.540;2022-09-12T12:50:22;0.40;;;0.40;;
21860;SDS011;11095;48.066;8.540;2022-09-12T13:01:11;0.95;;;0.40;;
21860;SDS011;11095;48.066;8.540;2022-09-12T13:03:42;1.95;;;0.50;;
21860;SDS011;11095;48.066;8.540;2022-09-12T13:06:20;0.75;;;0.40;;
21860;SDS011;11095;48.066;8.540;2022-09-12T13:08:55;0.73;;;0.40;;
21860;SDS011;11095;48.066;8.540;2022-09-12T13:11:28;0.93;;;0.50;;
21860;SDS011;11095;48.066;8.540;2022-09-12T13:14:05;1.10;;;0.50;;
21860;SDS011;11095;48.066;8.540;2022-09-12T13:16:55;0.40;;;0.40;;
21860;SDS011;11095;48.066;8.540;2022-09-12T13:19:28;0.40;;;0.38;;
21860;SDS011;11095;48.066;8.540;2022-09-12T13:22:07;0.40;;;0.40;;
21860;SDS011;11095;48.066;8.540;2022-09-12T13:24:41;1.58;;;0.50;;
21860;SDS011;11095;48.066;8.540;2022-09-12T13:27:19;0.60;;;0.43;;
21860;SDS011;11095;48.066;8.540;2022-09-12T13:29:46;0.47;;;0.35;;
21860;SDS011;11095;48.066;8.540;2022-09-12T13:32:12;1.45;;;0.70;;
21860;SDS011;11095;48.066;8.540;2022-09-12T13:34:43;0.98;;;0.50;;
21860;SDS011;11095;48.066;8.540;2022-09-12T13:45:42;0.63;;;0.40;;
21860;SDS011;11095;48.066;8.540;2022-09-12T13:48:20;0.30;;;0.30;;
21860;SDS011;11095;48.066;8.540;2022-09-12T13:53:17;0.60;;;0.50;;
21860;SDS011;11095;48.066;8.540;2022-09-12T14:01:16;0.90;;;0.70;;
21860;SDS011;11095;48.066;8.540;2022-09-12T14:03:48;0.80;;;0.60;;
21860;SDS011;11095;48.066;8.540;2022-09-12T14:06:51;1.55;;;0.60;;
21860;SDS011;11095;48.066;8.540;2022-09-12T14:09:21;1.27;;;0.47;;
21860;SDS011;11095;48.066;8.540;2022-09-12T14:11:49;0.85;;;0.50;;
21860;SDS011;11095;48.066;8.540;2022-09-12T14:14:30;1.25;;;0.50;;
21860;SDS011;11095;48.066;8.540;2022-09-12T14:16:58;0.77;;;0.38;;
21860;SDS011;11095;48.066;8.540;2022-09-12T14:19:24;0.63;;;0.43;;
21860;SDS011;11095;48.066;8.540;2022-09-12T14:21:54;0.47;;;0.45;;
21860;SDS011;11095;48.066;8.540;2022-09-12T14:24:21;1.05;;;0.40;;
21860;SDS011;11095;48.066;8.540;2022-09-12T14:26:48;0.63;;;0.40;;
21860;SDS011;11095;48.066;8.540;2022-09-12T14:29:15;1.13;;;0.50;;
21860;SDS011;11095;48.066;8.540;2022-09-12T14:31:42;0.77;;;0.52;;
21860;SDS011;11095;48.066;8.540;2022-09-12T14:36:50;1.13;;;0.47;;
21860;SDS011;11095;48.066;8.540;2022-09-12T14:42:19;0.38;;;0.32;;
21860;SDS011;11095;48.066;8.540;2022-09-12T14:47:39;1.85;;;0.50;;
21860;SDS011;11095;48.066;8.540;2022-09-12T14:50:16;0.73;;;0.50;;
21860;SDS011;11095;48.066;8.540;2022-09-12T14:52:45;0.80;;;0.40;;
21860;SDS011;11095;48.066;8.540;2022-09-12T14:55:29;0.40;;;0.40;;
21860;SDS011;11095;48.066;8.540;2022-09-12T14:58:11;1.15;;;0.50;;
21860;SDS011;11095;48.066;8.540;2022-09-12T15:00:50;1.83;;;0.80;;
21860;SDS011;11095;48.066;8.540;2022-09-12T15:03:22;0.98;;;0.60;;
21860;SDS011;11095;48.066;8.540;2022-09-12T15:05:53;0.75;;;0.60;;
21860;SDS011;11095;48.066;8.540;2022-09-12T15:08:19;0.73;;;0.50;;
21860;SDS011;11095;48.066;8.540;2022-09-12T15:10:45;0.93;;;0.60;;
21860;SDS011;11095;48.066;8.540;2022-09-12T15:13:19;1.55;;;0.50;;
21860;SDS011;11095;48.066;8.540;2022-09-12T15:15:53;0.63;;;0.47;;
21860;SDS011;11095;48.066;8.540;2022-09-12T15:18:21;0.47;;;0.45;;
21860;SDS011;11095;48.066;8.540;2022-09-12T15:20:50;1.15;;;0.47;;
21860;SDS011;11095;48.066;8.540;2022-09-12T15:26:02;1.13;;;0.50;;
21860;SDS011;11095;48.066;8.540;2022-09-12T15:28:29;1.35;;;0.55;;
21860;SDS011;11095;48.066;8.540;2022-09-12T15:30:55;1.88;;;0.70;;
21860;SDS011;11095;48.066;8.540;2022-09-12T15:33:24;1.45;;;0.80;;
21860;SDS011;11095;48.066;8.540;2022-09-12T15:35:49;1.10;;;0.50;;
21860;SDS011;11095;48.066;8.540;2022-09-12T15:38:16;0.52;;;0.52;;
21860;SDS011;11095;48.066;8.540;2022-09-12T15:40:42;0.50;;;0.50;;
21860;SDS011;11095;48.066;8.540;2022-09-12T15:43:09;0.65;;;0.65;;
21860;SDS011;11095;48.066;8.540;2022-09-12T15:45:37;2.65;;;0.55;;
21860;SDS011;11095;48.066;8.540;2022-09-12T15:48:02;0.68;;;0.50;;
21860;SDS011;11095;48.066;8.540;2022-09-12T15:50:29;0.93;;;0.50;;
21860;SDS011;11095;48.066;8.540;2022-09-12T15:52:54;1.15;;;0.50;;
21860;SDS011;11095;48.066;8.540;2022-09-12T15:55:23;2.58;;;0.80;;
21860;SDS011;11095;48.066;8.540;2022-09-12T15:57:52;0.90;;;0.77;;
21860;SDS011;11095;48.066;8.540;2022-09-12T16:00:17;1.63;;;0.70;;
21860;SDS011;11095;48.066;8.540;2022-09-12T16:02:45;0.70;;;0.70;;
21860;SDS011;11095;48.066;8.540;2022-09-12T16:05:16;0.60;;;0.60;;
21860;SDS011;11095;48.066;8.540;2022-09-12T16:07:44;1.92;;;0.70;;
21860;SDS011;11095;48.066;8.540;2022-09-12T16:10:13;1.55;;;0.70;;
21860;SDS011;11095;48.066;8.540;2022-09-12T16:12:43;1.38;;;0.60;;
21860;SDS011;11095;48.066;8.540;2022-09-12T16:15:19;0.82;;;0.80;;
21860;SDS011;11095;48.066;8.540;2022-09-12T16:17:47;1.52;;;0.80;;
21860;SDS011;11095;48.066;8.540;2022-09-12T16:20:13;1.58;;;0.80;;
21860;SDS011;11095;48.066;8.540;2022-09-12T16:22:39;0.80;;;0.70;;
21860;SDS011;11095;48.066;8.540;2022-09-12T16:25:06;0.95;;;0.90;;
21860;SDS011;11095;48.066;8.540;2022-09-12T16:27:32;2.30;;;0.98;;
21860;SDS011;11095;48.066;8.540;2022-09-12T16:29:58;0.98;;;0.80;;
21860;SDS011;11095;48.066;8.540;2022-09-12T16:32:24;1.00;;;0.82;;
21860;SDS011;11095;48.066;8.540;2022-09-12T16:34:50;2.78;;;1.20;;
21860;SDS011;11095;48.066;8.540;2022-09-12T16:37:16;2.05;;;1.10;;
21860;SDS011;11095;48.066;8.540;2022-09-12T16:39:42;1.67;;;1.20;;
21860;SDS011;11095;48.066;8.540;2022-09-12T16:42:07;1.30;;;1.10;;
21860;SDS011;11095;48.066;8.540;2022-09-12T16:44:33;2.45;;;1.20;;
21860;SDS011;11095;48.066;8.540;2022-09-12T16:46:59;1.90;;;1.33;;
21860;SDS011;11095;48.066;8.540;2022-09-12T16:49:24;1.77;;;1.20;;
21860;SDS011;11095;48.066;8.540;2022-09-12T16:51:50;1.65;;;1.20;;
21860;SDS011;11095;48.066;8.540;2022-09-12T16:54:16;1.20;;;1.10;;
21860;SDS011;11095;48.066;8.540;2022-09-12T16:56:42;1.70;;;1.40;;
21860;SDS011;11095;48.066;8.540;2022-09-12T16:59:10;2.40;;;1.40;;
21860;SDS011;11095;48.066;8.540;2022-09-12T17:01:40;1.27;;;1.15;;
21860;SDS011;11095;48.066;8.540;2022-09-12T17:04:06;2.53;;;1.40;;
21860;SDS011;11095;48.066;8.540;2022-09-12T17:06:32;1.90;;;1.33;;
21860;SDS011;11095;48.066;8.540;2022-09-12T17:08:58;1.75;;;1.30;;
21860;SDS011;11095;48.066;8.540;2022-09-12T17:11:26;1.48;;;1.30;;
21860;SDS011;11095;48.066;8.540;2022-09-12T17:13:56;1.60;;;1.33;;
21860;SDS011;11095;48.066;8.540;2022-09-12T17:16:23;3.58;;;1.48;;
21860;SDS011;11095;48.066;8.540;2022-09-12T17:18:50;2.72;;;1.38;;
21860;SDS011;11095;48.066;8.540;2022-09-12T17:21:17;1.98;;;1.25;;
21860;SDS011;11095;48.066;8.540;2022-09-12T17:23:43;1.60;;;1.40;;
21860;SDS011;11095;48.066;8.540;2022-09-12T17:26:09;2.42;;;1.35;;
21860;SDS011;11095;48.066;8.540;2022-09-12T17:28:36;2.97;;;1.30;;
21860;SDS011;11095;48.066;8.540;2022-09-12T17:31:03;1.60;;;1.35;;
21860;SDS011;11095;48.066;8.540;2022-09-12T17:33:31;2.22;;;1.42;;
21860;SDS011;11095;48.066;8.540;2022-09-12T17:36:00;2.00;;;1.48;;
21860;SDS011;11095;48.066;8.540;2022-09-12T17:38:27;2.15;;;1.67;;
21860;SDS011;11095;48.066;8.540;2022-09-12T17:40:55;1.55;;;1.40;;
21860;SDS011;11095;48.066;8.540;2022-09-12T17:43:21;1.70;;;1.45;;
21860;SDS011;11095;48.066;8.540;2022-09-12T17:45:50;2.55;;;1.40;;
21860;SDS011;11095;48.066;8.540;2022-09-12T17:48:21;2.33;;;1.70;;
21860;SDS011;11095;48.066;8.540;2022-09-12T17:50:47;2.50;;;1.88;;
21860;SDS011;11095;48.066;8.540;2022-09-12T17:53:13;1.83;;;1.50;;
21860;SDS011;11095;48.066;8.540;2022-09-12T17:55:38;2.60;;;1.73;;
21860;SDS011;11095;48.066;8.540;2022-09-12T17:58:05;3.88;;;1.50;;
21860;SDS011;11095;48.066;8.540;2022-09-12T18:00:32;1.92;;;1.70;;
21860;SDS011;11095;48.066;8.540;2022-09-12T18:03:20;2.00;;;1.60;;
21860;SDS011;11095;48.066;8.540;2022-09-12T18:05:50;1.98;;;1.50;;
21860;SDS011;11095;48.066;8.540;2022-09-12T18:08:18;2.53;;;1.70;;
21860;SDS011;11095;48.066;8.540;2022-09-12T18:10:44;2.05;;;1.58;;
21860;SDS011;11095;48.066;8.540;2022-09-12T18:13:13;2.35;;;1.70;;
21860;SDS011;11095;48.066;8.540;2022-09-12T18:15:40;2.33;;;1.88;;
21860;SDS011;11095;48.066;8.540;2022-09-12T18:18:06;2.83;;;1.50;;
21860;SDS011;11095;48.066;8.540;2022-09-12T18:20:31;1.98;;;1.60;;
21860;SDS011;11095;48.066;8.540;2022-09-12T18:22:57;1.70;;;1.55;;
21860;SDS011;11095;48.066;8.540;2022-09-12T18:25:23;1.95;;;1.65;;
21860;SDS011;11095;48.066;8.540;2022-09-12T18:27:49;2.55;;;1.60;;